sensor_id;sensor_type;location;lat;lon;timestamp;temperature;humidity
45803;DHT22;31504;51.716;9.184;2022-09-06T00:02:56;23.10;53.90
45803;DHT22;31504;51.716;9.184;2022-09-06T00:05:57;23.10;53.90
45803;DHT22;31504;51.716;9.184;2022-09-06T00:08:57;23.10;53.90
45803;DHT22;31504;51.716;9.184;2022-09-06T00:11:59;23.10;54.00
45803;DHT22;31504;51.716;9.184;2022-09-06T00:14:59;23.10;54.00
45803;DHT22;31504;51.716;9.184;2022-09-06T00:18:01;23.10;54.00
45803;DHT22;31504;51.716;9.184;2022-09-06T00:21:04;23.10;54.00
45803;DHT22;31504;51.716;9.184;2022-09-06T00:24:12;23.10;54.00
45803;DHT22;31504;51.716;9.184;2022-09-06T00:27:12;23.10;54.10
45803;DHT22;31504;51.716;9.184;2022-09-06T00:30:13;23.10;54.10
45803;DHT22;31504;51.716;9.184;2022-09-06T00:33:13;23.10;54.10
45803;DHT22;31504;51.716;9.184;2022-09-06T00:36:14;23.10;54.10
45803;DHT22;31504;51.716;9.184;2022-09-06T00:39:15;23.20;54.20
45803;DHT22;31504;51.716;9.184;2022-09-06T00:42:15;23.10;54.20
45803;DHT22;31504;51.716;9.184;2022-09-06T00:45:16;23.10;54.80
45803;DHT22;31504;51.716;9.184;2022-09-06T00:48:17;23.10;54.20
45803;DHT22;31504;51.716;9.184;2022-09-06T00:51:19;23.10;54.20
45803;DHT22;31504;51.716;9.184;2022-09-06T00:54:21;23.10;54.20
45803;DHT22;31504;51.716;9.184;2022-09-06T00:57:22;23.10;54.30
45803;DHT22;31504;51.716;9.184;2022-09-06T01:00:26;23.10;54.30
45803;DHT22;31504;51.716;9.184;2022-09-06T01:03:27;23.10;54.30
45803;DHT22;31504;51.716;9.184;2022-09-06T01:06:38;23.10;54.30
45803;DHT22;31504;51.716;9.184;2022-09-06T01:10:07;23.10;54.30
45803;DHT22;31504;51.716;9.184;2022-09-06T01:13:17;23.10;54.40
45803;DHT22;31504;51.716;9.184;2022-09-06T01:16:39;23.10;54.30
45803;DHT22;31504;51.716;9.184;2022-09-06T01:19:54;23.10;54.40
45803;DHT22;31504;51.716;9.184;2022-09-06T01:30:01;23.10;54.50
45803;DHT22;31504;51.716;9.184;2022-09-06T01:33:08;23.10;54.40
45803;DHT22;31504;51.716;9.184;2022-09-06T01:36:13;23.10;54.50
45803;DHT22;31504;51.716;9.184;2022-09-06T01:39:33;23.10;54.50
45803;DHT22;31504;51.716;9.184;2022-09-06T01:42:34;23.10;54.50
45803;DHT22;31504;51.716;9.184;2022-09-06T01:45:55;23.10;54.50
45803;DHT22;31504;51.716;9.184;2022-09-06T01:52:33;23.10;54.60
45803;DHT22;31504;51.716;9.184;2022-09-06T01:55:44;23.10;54.60
45803;DHT22;31504;51.716;9.184;2022-09-06T02:02:24;23.10;54.60
45803;DHT22;31504;51.716;9.184;2022-09-06T02:05:40;23.10;54.60
45803;DHT22;31504;51.716;9.184;2022-09-06T02:08:45;23.10;54.70
45803;DHT22;31504;51.716;9.184;2022-09-06T02:11:49;23.10;54.70
45803;DHT22;31504;51.716;9.184;2022-09-06T02:15:01;23.10;54.70
45803;DHT22;31504;51.716;9.184;2022-09-06T02:18:12;23.10;54.70
45803;DHT22;31504;51.716;9.184;2022-09-06T02:21:14;23.10;54.80
45803;DHT22;31504;51.716;9.184;2022-09-06T02:24:20;23.10;54.80
45803;DHT22;31504;51.716;9.184;2022-09-06T02:27:22;23.10;54.80
45803;DHT22;31504;51.716;9.184;2022-09-06T02:30:22;23.10;54.80
45803;DHT22;31504;51.716;9.184;2022-09-06T02:33:25;23.10;54.80
45803;DHT22;31504;51.716;9.184;2022-09-06T02:36:29;23.10;54.90
45803;DHT22;31504;51.716;9.184;2022-09-06T02:39:30;23.10;54.90
45803;DHT22;31504;51.716;9.184;2022-09-06T02:42:31;23.10;55.50
45803;DHT22;31504;51.716;9.184;2022-09-06T02:45:32;23.10;55.00
45803;DHT22;31504;51.716;9.184;2022-09-06T02:48:32;23.10;55.00
45803;DHT22;31504;51.716;9.184;2022-09-06T02:51:37;23.10;55.00
45803;DHT22;31504;51.716;9.184;2022-09-06T02:54:38;23.10;55.10
45803;DHT22;31504;51.716;9.184;2022-09-06T02:57:39;23.10;55.00
45803;DHT22;31504;51.716;9.184;2022-09-06T03:00:40;23.10;55.10
45803;DHT22;31504;51.716;9.184;2022-09-06T03:03:40;23.10;55.10
45803;DHT22;31504;51.716;9.184;2022-09-06T03:06:41;23.10;55.20
45803;DHT22;31504;51.716;9.184;2022-09-06T03:09:41;23.10;55.20
45803;DHT22;31504;51.716;9.184;2022-09-06T03:12:42;23.10;55.30
45803;DHT22;31504;51.716;9.184;2022-09-06T03:15:43;23.10;55.30
45803;DHT22;31504;51.716;9.184;2022-09-06T03:18:44;23.10;55.30
45803;DHT22;31504;51.716;9.184;2022-09-06T03:21:44;23.10;55.30
45803;DHT22;31504;51.716;9.184;2022-09-06T03:24:45;23.10;55.40
45803;DHT22;31504;51.716;9.184;2022-09-06T03:27:46;23.10;55.40
45803;DHT22;31504;51.716;9.184;2022-09-06T03:30:47;23.10;55.40
45803;DHT22;31504;51.716;9.184;2022-09-06T03:33:48;23.10;55.40
45803;DHT22;31504;51.716;9.184;2022-09-06T03:36:49;23.10;55.40
45803;DHT22;31504;51.716;9.184;2022-09-06T03:39:49;23.10;55.50
45803;DHT22;31504;51.716;9.184;2022-09-06T03:42:50;23.10;55.50
45803;DHT22;31504;51.716;9.184;2022-09-06T03:45:53;23.10;55.50
45803;DHT22;31504;51.716;9.184;2022-09-06T03:48:53;23.10;55.60
45803;DHT22;31504;51.716;9.184;2022-09-06T03:51:54;23.10;55.60
45803;DHT22;31504;51.716;9.184;2022-09-06T03:54:54;23.10;55.50
45803;DHT22;31504;51.716;9.184;2022-09-06T03:57:55;23.10;55.70
45803;DHT22;31504;51.716;9.184;2022-09-06T04:01:07;23.10;55.70
45803;DHT22;31504;51.716;9.184;2022-09-06T04:04:08;23.10;55.70
45803;DHT22;31504;51.716;9.184;2022-09-06T04:07:09;23.10;55.80
45803;DHT22;31504;51.716;9.184;2022-09-06T04:10:10;23.10;55.80
45803;DHT22;31504;51.716;9.184;2022-09-06T04:13:10;23.10;55.80
45803;DHT22;31504;51.716;9.184;2022-09-06T04:16:11;23.10;55.80
45803;DHT22;31504;51.716;9.184;2022-09-06T04:19:11;23.10;55.80
45803;DHT22;31504;51.716;9.184;2022-09-06T04:22:12;23.10;55.90
45803;DHT22;31504;51.716;9.184;2022-09-06T04:25:13;23.10;55.90
45803;DHT22;31504;51.716;9.184;2022-09-06T04:28:13;23.10;55.90
45803;DHT22;31504;51.716;9.184;2022-09-06T04:31:14;23.10;56.00
45803;DHT22;31504;51.716;9.184;2022-09-06T04:34:15;23.10;55.90
45803;DHT22;31504;51.716;9.184;2022-09-06T04:37:15;23.10;55.90
45803;DHT22;31504;51.716;9.184;2022-09-06T04:40:19;23.10;56.20
45803;DHT22;31504;51.716;9.184;2022-09-06T04:43:20;23.10;56.20
45803;DHT22;31504;51.716;9.184;2022-09-06T04:46:28;23.10;56.20
45803;DHT22;31504;51.716;9.184;2022-09-06T04:49:29;23.10;56.20
45803;DHT22;31504;51.716;9.184;2022-09-06T04:52:29;23.10;56.30
45803;DHT22;31504;51.716;9.184;2022-09-06T04:55:31;23.10;56.20
45803;DHT22;31504;51.716;9.184;2022-09-06T04:58:31;23.10;56.20
45803;DHT22;31504;51.716;9.184;2022-09-06T05:01:32;23.10;56.20
45803;DHT22;31504;51.716;9.184;2022-09-06T05:04:32;23.10;56.20
45803;DHT22;31504;51.716;9.184;2022-09-06T05:07:33;23.10;56.10
45803;DHT22;31504;51.716;9.184;2022-09-06T05:10:33;23.10;56.40
45803;DHT22;31504;51.716;9.184;2022-09-06T05:13:34;23.10;56.50
45803;DHT22;31504;51.716;9.184;2022-09-06T05:16:34;23.10;56.70
45803;DHT22;31504;51.716;9.184;2022-09-06T05:19:35;23.10;56.80
45803;DHT22;31504;51.716;9.184;2022-09-06T05:22:36;23.10;57.10
45803;DHT22;31504;51.716;9.184;2022-09-06T05:25:37;23.10;57.30
45803;DHT22;31504;51.716;9.184;2022-09-06T05:28:37;23.10;57.30
45803;DHT22;31504;51.716;9.184;2022-09-06T05:31:38;23.10;57.00
45803;DHT22;31504;51.716;9.184;2022-09-06T05:34:38;23.10;57.30
45803;DHT22;31504;51.716;9.184;2022-09-06T05:37:39;23.10;57.30
45803;DHT22;31504;51.716;9.184;2022-09-06T05:40:40;23.10;58.00
45803;DHT22;31504;51.716;9.184;2022-09-06T05:43:40;23.10;57.90
45803;DHT22;31504;51.716;9.184;2022-09-06T05:46:44;23.10;58.00
45803;DHT22;31504;51.716;9.184;2022-09-06T05:49:45;23.10;57.90
45803;DHT22;31504;51.716;9.184;2022-09-06T05:52:45;23.10;58.10
45803;DHT22;31504;51.716;9.184;2022-09-06T05:55:46;23.10;58.10
45803;DHT22;31504;51.716;9.184;2022-09-06T05:58:47;23.10;58.70
45803;DHT22;31504;51.716;9.184;2022-09-06T06:01:49;23.10;58.30
45803;DHT22;31504;51.716;9.184;2022-09-06T06:04:50;23.10;58.50
45803;DHT22;31504;51.716;9.184;2022-09-06T06:07:53;23.10;58.80
45803;DHT22;31504;51.716;9.184;2022-09-06T06:10:58;23.10;58.70
45803;DHT22;31504;51.716;9.184;2022-09-06T06:13:59;23.10;58.80
45803;DHT22;31504;51.716;9.184;2022-09-06T06:17:01;23.10;58.60
45803;DHT22;31504;51.716;9.184;2022-09-06T06:20:02;23.00;58.80
45803;DHT22;31504;51.716;9.184;2022-09-06T06:23:02;23.00;59.00
45803;DHT22;31504;51.716;9.184;2022-09-06T06:26:03;23.00;59.20
45803;DHT22;31504;51.716;9.184;2022-09-06T06:29:04;23.10;59.10
45803;DHT22;31504;51.716;9.184;2022-09-06T06:32:08;23.10;58.90
45803;DHT22;31504;51.716;9.184;2022-09-06T06:35:09;23.10;59.10
45803;DHT22;31504;51.716;9.184;2022-09-06T06:38:09;23.10;59.00
45803;DHT22;31504;51.716;9.184;2022-09-06T06:41:12;23.10;59.10
45803;DHT22;31504;51.716;9.184;2022-09-06T06:44:13;23.00;58.90
45803;DHT22;31504;51.716;9.184;2022-09-06T06:47:14;23.10;59.10
45803;DHT22;31504;51.716;9.184;2022-09-06T06:50:14;23.00;59.10
45803;DHT22;31504;51.716;9.184;2022-09-06T06:53:15;23.10;59.40
45803;DHT22;31504;51.716;9.184;2022-09-06T06:56:30;23.10;59.30
45803;DHT22;31504;51.716;9.184;2022-09-06T06:59:31;23.10;59.30
45803;DHT22;31504;51.716;9.184;2022-09-06T07:02:31;23.10;59.20
45803;DHT22;31504;51.716;9.184;2022-09-06T07:05:32;23.10;59.20
45803;DHT22;31504;51.716;9.184;2022-09-06T07:08:34;23.10;59.40
45803;DHT22;31504;51.716;9.184;2022-09-06T07:11:36;23.10;59.50
45803;DHT22;31504;51.716;9.184;2022-09-06T07:14:37;23.10;59.70
45803;DHT22;31504;51.716;9.184;2022-09-06T07:17:38;23.10;59.60
45803;DHT22;31504;51.716;9.184;2022-09-06T07:20:39;23.10;59.80
45803;DHT22;31504;51.716;9.184;2022-09-06T07:23:39;23.10;59.60
45803;DHT22;31504;51.716;9.184;2022-09-06T07:26:40;23.10;59.80
45803;DHT22;31504;51.716;9.184;2022-09-06T07:29:41;23.10;59.80
45803;DHT22;31504;51.716;9.184;2022-09-06T07:32:41;23.10;59.90
45803;DHT22;31504;51.716;9.184;2022-09-06T07:35:42;23.20;59.80
45803;DHT22;31504;51.716;9.184;2022-09-06T07:38:47;23.10;59.90
45803;DHT22;31504;51.716;9.184;2022-09-06T07:41:48;23.10;60.00
45803;DHT22;31504;51.716;9.184;2022-09-06T07:44:48;23.20;59.80
45803;DHT22;31504;51.716;9.184;2022-09-06T07:47:53;23.10;60.30
45803;DHT22;31504;51.716;9.184;2022-09-06T07:50:54;23.10;60.40
45803;DHT22;31504;51.716;9.184;2022-09-06T07:53:55;23.10;60.30
45803;DHT22;31504;51.716;9.184;2022-09-06T07:56:55;23.10;60.30
45803;DHT22;31504;51.716;9.184;2022-09-06T07:59:56;23.20;60.30
45803;DHT22;31504;51.716;9.184;2022-09-06T08:02:56;23.10;60.10
45803;DHT22;31504;51.716;9.184;2022-09-06T08:05:57;23.10;60.10
45803;DHT22;31504;51.716;9.184;2022-09-06T08:08:58;23.10;60.30
45803;DHT22;31504;51.716;9.184;2022-09-06T08:11:58;23.10;60.50
45803;DHT22;31504;51.716;9.184;2022-09-06T08:15:00;23.10;60.50
45803;DHT22;31504;51.716;9.184;2022-09-06T08:18:01;23.20;60.40
45803;DHT22;31504;51.716;9.184;2022-09-06T08:21:06;23.20;60.30
45803;DHT22;31504;51.716;9.184;2022-09-06T08:24:07;23.20;60.50
45803;DHT22;31504;51.716;9.184;2022-09-06T08:27:09;23.20;60.30
45803;DHT22;31504;51.716;9.184;2022-09-06T08:30:10;23.20;60.60
45803;DHT22;31504;51.716;9.184;2022-09-06T08:33:11;23.20;60.50
45803;DHT22;31504;51.716;9.184;2022-09-06T08:36:12;23.20;60.40
45803;DHT22;31504;51.716;9.184;2022-09-06T08:39:13;23.20;60.60
45803;DHT22;31504;51.716;9.184;2022-09-06T08:42:13;23.20;60.60
45803;DHT22;31504;51.716;9.184;2022-09-06T08:45:16;23.20;60.60
45803;DHT22;31504;51.716;9.184;2022-09-06T08:48:19;23.20;60.80
45803;DHT22;31504;51.716;9.184;2022-09-06T08:51:42;23.20;60.70
45803;DHT22;31504;51.716;9.184;2022-09-06T09:01:10;23.20;60.50
45803;DHT22;31504;51.716;9.184;2022-09-06T09:04:14;23.20;60.30
45803;DHT22;31504;51.716;9.184;2022-09-06T09:07:39;23.20;60.10
45803;DHT22;31504;51.716;9.184;2022-09-06T09:11:01;23.20;60.30
45803;DHT22;31504;51.716;9.184;2022-09-06T09:14:11;23.20;60.50
45803;DHT22;31504;51.716;9.184;2022-09-06T09:17:17;23.20;60.50
45803;DHT22;31504;51.716;9.184;2022-09-06T09:20:21;23.20;60.20
45803;DHT22;31504;51.716;9.184;2022-09-06T09:23:22;23.20;60.60
45803;DHT22;31504;51.716;9.184;2022-09-06T09:26:25;23.20;60.50
45803;DHT22;31504;51.716;9.184;2022-09-06T09:29:26;23.20;60.40
45803;DHT22;31504;51.716;9.184;2022-09-06T09:32:45;23.20;60.40
45803;DHT22;31504;51.716;9.184;2022-09-06T09:35:46;23.20;60.30
45803;DHT22;31504;51.716;9.184;2022-09-06T09:38:48;23.20;60.30
45803;DHT22;31504;51.716;9.184;2022-09-06T09:41:50;23.20;60.00
45803;DHT22;31504;51.716;9.184;2022-09-06T09:44:51;23.20;60.10
45803;DHT22;31504;51.716;9.184;2022-09-06T09:47:51;23.20;60.00
45803;DHT22;31504;51.716;9.184;2022-09-06T09:50:53;23.20;59.90
45803;DHT22;31504;51.716;9.184;2022-09-06T09:54:03;23.20;60.00
45803;DHT22;31504;51.716;9.184;2022-09-06T09:57:09;23.20;59.80
45803;DHT22;31504;51.716;9.184;2022-09-06T10:00:10;23.20;59.70
45803;DHT22;31504;51.716;9.184;2022-09-06T10:03:18;23.30;59.80
45803;DHT22;31504;51.716;9.184;2022-09-06T10:06:25;23.20;59.60
45803;DHT22;31504;51.716;9.184;2022-09-06T10:09:33;23.20;59.60
45803;DHT22;31504;51.716;9.184;2022-09-06T10:12:36;23.20;59.60
45803;DHT22;31504;51.716;9.184;2022-09-06T10:15:41;23.20;59.60
45803;DHT22;31504;51.716;9.184;2022-09-06T10:18:43;23.20;59.40
45803;DHT22;31504;51.716;9.184;2022-09-06T10:21:44;23.20;59.40
45803;DHT22;31504;51.716;9.184;2022-09-06T10:28:37;23.30;59.30
45803;DHT22;31504;51.716;9.184;2022-09-06T10:31:46;23.30;57.30
45803;DHT22;31504;51.716;9.184;2022-09-06T10:34:53;23.30;59.40
45803;DHT22;31504;51.716;9.184;2022-09-06T10:48:25;23.30;59.30
45803;DHT22;31504;51.716;9.184;2022-09-06T10:51:39;23.30;59.30
45803;DHT22;31504;51.716;9.184;2022-09-06T10:54:41;23.40;59.10
45803;DHT22;31504;51.716;9.184;2022-09-06T10:57:54;23.30;58.40
45803;DHT22;31504;51.716;9.184;2022-09-06T11:00:56;23.40;58.80
45803;DHT22;31504;51.716;9.184;2022-09-06T11:03:58;23.30;58.90
45803;DHT22;31504;51.716;9.184;2022-09-06T11:07:03;23.40;57.90
45803;DHT22;31504;51.716;9.184;2022-09-06T11:13:28;23.40;58.10
45803;DHT22;31504;51.716;9.184;2022-09-06T11:16:32;23.40;59.20
45803;DHT22;31504;51.716;9.184;2022-09-06T11:19:49;23.40;57.40
45803;DHT22;31504;51.716;9.184;2022-09-06T11:29:39;23.50;59.20
45803;DHT22;31504;51.716;9.184;2022-09-06T11:32:46;23.50;60.00
45803;DHT22;31504;51.716;9.184;2022-09-06T11:35:49;23.50;59.10
45803;DHT22;31504;51.716;9.184;2022-09-06T11:38:57;23.50;59.20
45803;DHT22;31504;51.716;9.184;2022-09-06T11:42:00;23.50;57.60
45803;DHT22;31504;51.716;9.184;2022-09-06T11:54:43;23.60;58.60
45803;DHT22;31504;51.716;9.184;2022-09-06T11:57:46;23.50;58.50
45803;DHT22;31504;51.716;9.184;2022-09-06T12:04:12;23.40;56.20
45803;DHT22;31504;51.716;9.184;2022-09-06T12:07:13;23.50;58.50
45803;DHT22;31504;51.716;9.184;2022-09-06T12:23:47;23.50;58.60
45803;DHT22;31504;51.716;9.184;2022-09-06T12:26:49;23.60;58.50
45803;DHT22;31504;51.716;9.184;2022-09-06T12:30:02;23.60;58.40
45803;DHT22;31504;51.716;9.184;2022-09-06T12:33:10;23.70;58.30
45803;DHT22;31504;51.716;9.184;2022-09-06T12:36:22;23.70;58.30
45803;DHT22;31504;51.716;9.184;2022-09-06T12:39:23;23.70;57.10
45803;DHT22;31504;51.716;9.184;2022-09-06T12:42:24;23.60;57.80
45803;DHT22;31504;51.716;9.184;2022-09-06T12:45:25;23.60;58.20
45803;DHT22;31504;51.716;9.184;2022-09-06T12:48:31;23.60;56.10
45803;DHT22;31504;51.716;9.184;2022-09-06T12:51:33;23.60;57.90
45803;DHT22;31504;51.716;9.184;2022-09-06T12:54:45;23.70;57.30
45803;DHT22;31504;51.716;9.184;2022-09-06T12:57:47;23.70;56.80
45803;DHT22;31504;51.716;9.184;2022-09-06T13:00:50;23.70;57.90
45803;DHT22;31504;51.716;9.184;2022-09-06T13:04:08;23.70;57.70
45803;DHT22;31504;51.716;9.184;2022-09-06T13:07:13;23.80;57.00
45803;DHT22;31504;51.716;9.184;2022-09-06T13:10:18;23.80;57.10
45803;DHT22;31504;51.716;9.184;2022-09-06T13:13:22;23.70;57.50
45803;DHT22;31504;51.716;9.184;2022-09-06T13:16:25;23.80;56.20
45803;DHT22;31504;51.716;9.184;2022-09-06T13:19:35;23.80;57.20
45803;DHT22;31504;51.716;9.184;2022-09-06T13:23:06;23.80;57.20
45803;DHT22;31504;51.716;9.184;2022-09-06T13:26:08;23.80;56.80
45803;DHT22;31504;51.716;9.184;2022-09-06T13:32:16;24.10;56.40
45803;DHT22;31504;51.716;9.184;2022-09-06T13:35:28;24.20;56.20
45803;DHT22;31504;51.716;9.184;2022-09-06T13:38:41;24.20;56.40
45803;DHT22;31504;51.716;9.184;2022-09-06T13:41:42;24.10;56.30
45803;DHT22;31504;51.716;9.184;2022-09-06T13:44:43;23.90;56.30
45803;DHT22;31504;51.716;9.184;2022-09-06T13:47:44;23.90;56.00
45803;DHT22;31504;51.716;9.184;2022-09-06T13:50:44;23.90;55.90
45803;DHT22;31504;51.716;9.184;2022-09-06T13:53:46;24.00;55.50
45803;DHT22;31504;51.716;9.184;2022-09-06T13:56:47;24.00;55.40
45803;DHT22;31504;51.716;9.184;2022-09-06T13:59:49;23.90;55.70
45803;DHT22;31504;51.716;9.184;2022-09-06T14:02:49;23.80;55.70
45803;DHT22;31504;51.716;9.184;2022-09-06T14:05:50;23.90;55.60
45803;DHT22;31504;51.716;9.184;2022-09-06T14:08:51;23.90;55.00
45803;DHT22;31504;51.716;9.184;2022-09-06T14:11:52;23.90;55.30
45803;DHT22;31504;51.716;9.184;2022-09-06T14:14:52;23.90;55.50
45803;DHT22;31504;51.716;9.184;2022-09-06T14:17:53;23.90;55.30
45803;DHT22;31504;51.716;9.184;2022-09-06T14:20:54;23.90;55.20
45803;DHT22;31504;51.716;9.184;2022-09-06T14:23:58;24.00;54.80
45803;DHT22;31504;51.716;9.184;2022-09-06T14:26:59;23.90;55.20
45803;DHT22;31504;51.716;9.184;2022-09-06T14:29:59;23.90;55.00
45803;DHT22;31504;51.716;9.184;2022-09-06T14:33:00;23.80;54.90
45803;DHT22;31504;51.716;9.184;2022-09-06T14:36:05;24.00;54.70
45803;DHT22;31504;51.716;9.184;2022-09-06T14:39:05;24.00;54.80
45803;DHT22;31504;51.716;9.184;2022-09-06T14:42:06;24.00;54.70
45803;DHT22;31504;51.716;9.184;2022-09-06T14:45:08;24.00;54.80
45803;DHT22;31504;51.716;9.184;2022-09-06T14:48:08;23.90;54.70
45803;DHT22;31504;51.716;9.184;2022-09-06T14:51:17;23.90;54.80
45803;DHT22;31504;51.716;9.184;2022-09-06T14:54:21;24.00;54.40
45803;DHT22;31504;51.716;9.184;2022-09-06T14:57:22;24.00;54.10
45803;DHT22;31504;51.716;9.184;2022-09-06T15:00:22;24.10;53.90
45803;DHT22;31504;51.716;9.184;2022-09-06T15:03:23;24.00;55.10
45803;DHT22;31504;51.716;9.184;2022-09-06T15:06:25;23.90;54.60
45803;DHT22;31504;51.716;9.184;2022-09-06T15:09:26;24.00;54.00
45803;DHT22;31504;51.716;9.184;2022-09-06T15:12:26;24.10;53.70
45803;DHT22;31504;51.716;9.184;2022-09-06T15:15:27;24.10;53.90
45803;DHT22;31504;51.716;9.184;2022-09-06T15:18:28;24.10;53.90
45803;DHT22;31504;51.716;9.184;2022-09-06T15:21:29;24.10;53.70
45803;DHT22;31504;51.716;9.184;2022-09-06T15:24:30;24.10;53.60
45803;DHT22;31504;51.716;9.184;2022-09-06T15:27:31;24.00;54.10
45803;DHT22;31504;51.716;9.184;2022-09-06T15:30:31;24.00;54.20
45803;DHT22;31504;51.716;9.184;2022-09-06T15:33:34;24.10;53.80
45803;DHT22;31504;51.716;9.184;2022-09-06T15:36:35;24.10;53.90
45803;DHT22;31504;51.716;9.184;2022-09-06T15:39:36;24.00;53.80
45803;DHT22;31504;51.716;9.184;2022-09-06T15:42:37;24.00;54.30
45803;DHT22;31504;51.716;9.184;2022-09-06T15:45:47;24.00;53.70
45803;DHT22;31504;51.716;9.184;2022-09-06T15:48:51;24.10;53.50
45803;DHT22;31504;51.716;9.184;2022-09-06T15:51:54;24.10;53.60
45803;DHT22;31504;51.716;9.184;2022-09-06T15:54:55;24.00;54.20
45803;DHT22;31504;51.716;9.184;2022-09-06T15:58:14;24.00;53.80
45803;DHT22;31504;51.716;9.184;2022-09-06T16:01:18;24.10;53.50
45803;DHT22;31504;51.716;9.184;2022-09-06T16:04:19;24.20;53.50
45803;DHT22;31504;51.716;9.184;2022-09-06T16:07:19;24.10;53.80
45803;DHT22;31504;51.716;9.184;2022-09-06T16:10:20;24.10;53.70
45803;DHT22;31504;51.716;9.184;2022-09-06T16:13:21;24.10;54.00
45803;DHT22;31504;51.716;9.184;2022-09-06T16:16:21;24.10;53.60
45803;DHT22;31504;51.716;9.184;2022-09-06T16:19:22;24.00;53.80
45803;DHT22;31504;51.716;9.184;2022-09-06T16:22:25;24.00;53.90
45803;DHT22;31504;51.716;9.184;2022-09-06T16:25:25;24.00;53.50
45803;DHT22;31504;51.716;9.184;2022-09-06T16:28:28;24.10;53.40
45803;DHT22;31504;51.716;9.184;2022-09-06T16:31:29;24.10;53.30
45803;DHT22;31504;51.716;9.184;2022-09-06T16:34:30;24.20;53.00
45803;DHT22;31504;51.716;9.184;2022-09-06T16:37:31;24.20;53.00
45803;DHT22;31504;51.716;9.184;2022-09-06T16:40:33;24.20;52.70
45803;DHT22;31504;51.716;9.184;2022-09-06T16:43:34;24.30;52.90
45803;DHT22;31504;51.716;9.184;2022-09-06T16:46:35;24.20;53.50
45803;DHT22;31504;51.716;9.184;2022-09-06T16:49:35;24.10;53.00
45803;DHT22;31504;51.716;9.184;2022-09-06T16:52:36;24.30;52.80
45803;DHT22;31504;51.716;9.184;2022-09-06T16:55:39;24.20;52.80
45803;DHT22;31504;51.716;9.184;2022-09-06T16:58:40;24.20;52.70
45803;DHT22;31504;51.716;9.184;2022-09-06T17:01:41;24.20;52.90
45803;DHT22;31504;51.716;9.184;2022-09-06T17:04:43;24.20;52.60
45803;DHT22;31504;51.716;9.184;2022-09-06T17:07:43;24.20;53.20
45803;DHT22;31504;51.716;9.184;2022-09-06T17:10:45;24.10;52.70
45803;DHT22;31504;51.716;9.184;2022-09-06T17:13:48;24.10;52.90
45803;DHT22;31504;51.716;9.184;2022-09-06T17:16:49;24.10;52.90
45803;DHT22;31504;51.716;9.184;2022-09-06T17:20:05;24.20;52.90
45803;DHT22;31504;51.716;9.184;2022-09-06T17:23:05;24.20;53.00
45803;DHT22;31504;51.716;9.184;2022-09-06T17:26:06;24.20;53.60
45803;DHT22;31504;51.716;9.184;2022-09-06T17:29:07;24.20;53.10
45803;DHT22;31504;51.716;9.184;2022-09-06T17:32:08;24.20;53.10
45803;DHT22;31504;51.716;9.184;2022-09-06T17:35:09;24.20;53.00
45803;DHT22;31504;51.716;9.184;2022-09-06T17:38:10;24.20;53.10
45803;DHT22;31504;51.716;9.184;2022-09-06T17:41:22;24.20;53.00
45803;DHT22;31504;51.716;9.184;2022-09-06T17:44:24;24.20;53.00
45803;DHT22;31504;51.716;9.184;2022-09-06T17:47:25;24.20;53.00
45803;DHT22;31504;51.716;9.184;2022-09-06T17:50:29;24.20;53.00
45803;DHT22;31504;51.716;9.184;2022-09-06T17:53:29;24.20;53.10
45803;DHT22;31504;51.716;9.184;2022-09-06T17:56:30;24.20;53.10
45803;DHT22;31504;51.716;9.184;2022-09-06T17:59:31;24.20;53.10
45803;DHT22;31504;51.716;9.184;2022-09-06T18:02:31;24.30;53.20
45803;DHT22;31504;51.716;9.184;2022-09-06T18:05:37;24.30;53.20
45803;DHT22;31504;51.716;9.184;2022-09-06T18:08:41;24.30;53.20
45803;DHT22;31504;51.716;9.184;2022-09-06T18:11:42;24.30;53.30
45803;DHT22;31504;51.716;9.184;2022-09-06T18:14:45;24.30;53.30
45803;DHT22;31504;51.716;9.184;2022-09-06T18:17:45;24.30;53.40
45803;DHT22;31504;51.716;9.184;2022-09-06T18:20:48;24.30;53.30
45803;DHT22;31504;51.716;9.184;2022-09-06T18:23:50;24.20;53.30
45803;DHT22;31504;51.716;9.184;2022-09-06T18:26:51;24.20;53.30
45803;DHT22;31504;51.716;9.184;2022-09-06T18:29:51;24.20;53.40
45803;DHT22;31504;51.716;9.184;2022-09-06T18:32:52;24.20;53.50
45803;DHT22;31504;51.716;9.184;2022-09-06T18:35:53;24.10;53.70
45803;DHT22;31504;51.716;9.184;2022-09-06T18:38:53;24.10;54.10
45803;DHT22;31504;51.716;9.184;2022-09-06T18:41:54;24.00;54.40
45803;DHT22;31504;51.716;9.184;2022-09-06T18:45:00;24.00;54.50
45803;DHT22;31504;51.716;9.184;2022-09-06T18:48:01;24.00;54.90
45803;DHT22;31504;51.716;9.184;2022-09-06T18:51:11;24.00;55.20
45803;DHT22;31504;51.716;9.184;2022-09-06T18:54:12;24.00;55.20
45803;DHT22;31504;51.716;9.184;2022-09-06T18:57:13;24.00;55.30
45803;DHT22;31504;51.716;9.184;2022-09-06T19:00:15;24.00;55.30
45803;DHT22;31504;51.716;9.184;2022-09-06T19:03:17;23.90;55.50
45803;DHT22;31504;51.716;9.184;2022-09-06T19:06:19;23.90;55.60
45803;DHT22;31504;51.716;9.184;2022-09-06T19:09:20;23.90;55.70
45803;DHT22;31504;51.716;9.184;2022-09-06T19:12:21;23.90;55.80
45803;DHT22;31504;51.716;9.184;2022-09-06T19:15:22;23.90;56.00
45803;DHT22;31504;51.716;9.184;2022-09-06T19:18:24;23.90;56.10
45803;DHT22;31504;51.716;9.184;2022-09-06T19:21:25;23.90;56.30
45803;DHT22;31504;51.716;9.184;2022-09-06T19:24:26;23.90;56.30
45803;DHT22;31504;51.716;9.184;2022-09-06T19:27:27;23.90;56.50
45803;DHT22;31504;51.716;9.184;2022-09-06T19:30:27;23.90;56.70
45803;DHT22;31504;51.716;9.184;2022-09-06T19:33:29;23.90;56.70
45803;DHT22;31504;51.716;9.184;2022-09-06T19:36:30;23.90;56.90
45803;DHT22;31504;51.716;9.184;2022-09-06T19:39:31;23.80;56.70
45803;DHT22;31504;51.716;9.184;2022-09-06T19:42:31;23.80;56.70
45803;DHT22;31504;51.716;9.184;2022-09-06T19:45:38;23.80;56.60
45803;DHT22;31504;51.716;9.184;2022-09-06T19:48:43;23.80;56.60
45803;DHT22;31504;51.716;9.184;2022-09-06T19:51:47;23.80;56.80
45803;DHT22;31504;51.716;9.184;2022-09-06T19:54:48;23.80;56.80
45803;DHT22;31504;51.716;9.184;2022-09-06T19:57:48;23.80;56.80
45803;DHT22;31504;51.716;9.184;2022-09-06T20:00:49;23.80;56.70
45803;DHT22;31504;51.716;9.184;2022-09-06T20:03:50;23.80;56.60
45803;DHT22;31504;51.716;9.184;2022-09-06T20:06:50;23.80;56.60
45803;DHT22;31504;51.716;9.184;2022-09-06T20:09:51;23.90;56.60
45803;DHT22;31504;51.716;9.184;2022-09-06T20:12:51;23.80;56.60
45803;DHT22;31504;51.716;9.184;2022-09-06T20:15:52;23.90;56.60
45803;DHT22;31504;51.716;9.184;2022-09-06T20:18:54;23.90;56.50
45803;DHT22;31504;51.716;9.184;2022-09-06T20:21:55;23.90;56.60
45803;DHT22;31504;51.716;9.184;2022-09-06T20:24:56;23.90;56.50
45803;DHT22;31504;51.716;9.184;2022-09-06T20:27:56;23.90;56.50
45803;DHT22;31504;51.716;9.184;2022-09-06T20:30:59;23.90;56.50